sensor_id;sensor_type;location;lat;lon;timestamp;pressure;altitude;pressure_sealevel;temperature;humidity
70468;BME280;57934;51.532;7.684;2023-03-14T00:01:14;97874.66;;;10.40;80.52
70468;BME280;57934;51.532;7.684;2023-03-14T00:03:43;97889.97;;;10.43;80.12
70468;BME280;57934;51.532;7.684;2023-03-14T00:06:10;97877.28;;;10.40;80.32
70468;BME280;57934;51.532;7.684;2023-03-14T00:08:36;97862.28;;;10.40;80.00
70468;BME280;57934;51.532;7.684;2023-03-14T00:11:08;97872.03;;;10.40;80.19
70468;BME280;57934;51.532;7.684;2023-03-14T00:13:35;97873.06;;;10.39;80.26
70468;BME280;57934;51.532;7.684;2023-03-14T00:16:03;97868.06;;;10.42;80.30
70468;BME280;57934;51.532;7.684;2023-03-14T00:18:30;97859.16;;;10.43;80.20
70468;BME280;57934;51.532;7.684;2023-03-14T00:21:01;97864.44;;;10.48;79.93
70468;BME280;57934;51.532;7.684;2023-03-14T00:23:28;97849.72;;;10.52;79.51
70468;BME280;57934;51.532;7.684;2023-03-14T00:26:01;97848.63;;;10.48;79.79
70468;BME280;57934;51.532;7.684;2023-03-14T00:28:28;97846.50;;;10.45;79.59
70468;BME280;57934;51.532;7.684;2023-03-14T00:30:55;97840.94;;;10.42;79.33
70468;BME280;57934;51.532;7.684;2023-03-14T00:33:21;97855.44;;;10.39;79.56
70468;BME280;57934;51.532;7.684;2023-03-14T00:35:58;97860.16;;;10.37;79.35
70468;BME280;57934;51.532;7.684;2023-03-14T00:38:25;97880.16;;;10.38;79.62
70468;BME280;57934;51.532;7.684;2023-03-14T00:40:52;97873.00;;;10.29;80.05
70468;BME280;57934;51.532;7.684;2023-03-14T00:43:19;97873.50;;;10.25;79.85
70468;BME280;57934;51.532;7.684;2023-03-14T00:45:52;97868.22;;;10.25;79.84
70468;BME280;57934;51.532;7.684;2023-03-14T00:48:19;97879.59;;;10.31;80.01
70468;BME280;57934;51.532;7.684;2023-03-14T00:50:46;97881.78;;;10.39;79.24
70468;BME280;57934;51.532;7.684;2023-03-14T00:53:16;97869.97;;;10.47;78.87
70468;BME280;57934;51.532;7.684;2023-03-14T00:55:43;97864.72;;;10.47;78.94
70468;BME280;57934;51.532;7.684;2023-03-14T00:58:11;97871.31;;;10.49;78.70
70468;BME280;57934;51.532;7.684;2023-03-14T01:00:40;97869.19;;;10.46;78.81
70468;BME280;57934;51.532;7.684;2023-03-14T01:03:08;97862.00;;;10.42;79.18
70468;BME280;57934;51.532;7.684;2023-03-14T01:05:35;97846.75;;;10.44;78.65
70468;BME280;57934;51.532;7.684;2023-03-14T01:08:02;97837.84;;;10.50;78.67
70468;BME280;57934;51.532;7.684;2023-03-14T01:10:28;97854.19;;;10.52;78.64
70468;BME280;57934;51.532;7.684;2023-03-14T01:12:57;97837.88;;;10.55;78.38
70468;BME280;57934;51.532;7.684;2023-03-14T01:15:23;97832.38;;;10.57;78.42
70468;BME280;57934;51.532;7.684;2023-03-14T01:17:49;97841.59;;;10.59;78.29
70468;BME280;57934;51.532;7.684;2023-03-14T01:20:16;97835.03;;;10.67;78.05
70468;BME280;57934;51.532;7.684;2023-03-14T01:22:43;97855.13;;;10.73;77.93
70468;BME280;57934;51.532;7.684;2023-03-14T01:25:12;97842.22;;;10.77;77.48
70468;BME280;57934;51.532;7.684;2023-03-14T01:27:39;97837.66;;;10.62;79.38
70468;BME280;57934;51.532;7.684;2023-03-14T01:30:06;97847.75;;;10.33;80.84
70468;BME280;57934;51.532;7.684;2023-03-14T01:32:34;97851.81;;;10.18;82.46
70468;BME280;57934;51.532;7.684;2023-03-14T01:35:00;97885.88;;;10.03;85.00
70468;BME280;57934;51.532;7.684;2023-03-14T01:37:26;97889.84;;;9.78;87.88
70468;BME280;57934;51.532;7.684;2023-03-14T01:39:52;97889.72;;;9.41;90.73
70468;BME280;57934;51.532;7.684;2023-03-14T01:42:19;97923.19;;;9.07;93.55
70468;BME280;57934;51.532;7.684;2023-03-14T01:47:15;97911.00;;;8.84;96.82
70468;BME280;57934;51.532;7.684;2023-03-14T01:49:43;97900.34;;;8.74;97.06
70468;BME280;57934;51.532;7.684;2023-03-14T01:52:33;97896.47;;;8.59;97.19
70468;BME280;57934;51.532;7.684;2023-03-14T01:55:07;97901.56;;;8.49;97.52
70468;BME280;57934;51.532;7.684;2023-03-14T01:57:40;97887.25;;;8.40;97.94
70468;BME280;57934;51.532;7.684;2023-03-14T02:00:15;97872.09;;;8.30;98.82
70468;BME280;57934;51.532;7.684;2023-03-14T02:02:45;97879.56;;;8.22;99.42
70468;BME280;57934;51.532;7.684;2023-03-14T02:05:17;97870.81;;;8.16;100.00
70468;BME280;57934;51.532;7.684;2023-03-14T02:07:53;97873.38;;;8.11;100.00
70468;BME280;57934;51.532;7.684;2023-03-14T02:10:33;97874.16;;;8.11;100.00
70468;BME280;57934;51.532;7.684;2023-03-14T02:13:04;97857.50;;;8.06;100.00
70468;BME280;57934;51.532;7.684;2023-03-14T02:15:41;97861.66;;;8.02;100.00
70468;BME280;57934;51.532;7.684;2023-03-14T02:18:34;97857.13;;;7.97;100.00
70468;BME280;57934;51.532;7.684;2023-03-14T02:21:42;97852.03;;;7.91;100.00
70468;BME280;57934;51.532;7.684;2023-03-14T02:29:28;97860.97;;;7.78;100.00
70468;BME280;57934;51.532;7.684;2023-03-14T02:31:55;97858.13;;;7.79;100.00
70468;BME280;57934;51.532;7.684;2023-03-14T02:34:21;97858.81;;;7.75;100.00
70468;BME280;57934;51.532;7.684;2023-03-14T02:36:47;97859.94;;;7.79;100.00
70468;BME280;57934;51.532;7.684;2023-03-14T02:39:21;97858.66;;;7.81;100.00
70468;BME280;57934;51.532;7.684;2023-03-14T02:41:51;97846.44;;;7.87;100.00
70468;BME280;57934;51.532;7.684;2023-03-14T02:44:17;97844.63;;;7.87;100.00
70468;BME280;57934;51.532;7.684;2023-03-14T02:46:43;97846.63;;;7.97;100.00
70468;BME280;57934;51.532;7.684;2023-03-14T02:49:14;97861.19;;;8.05;100.00
70468;BME280;57934;51.532;7.684;2023-03-14T02:51:41;97859.41;;;8.10;100.00
70468;BME280;57934;51.532;7.684;2023-03-14T02:54:09;97859.38;;;8.22;100.00
70468;BME280;57934;51.532;7.684;2023-03-14T02:56:36;97854.75;;;8.29;100.00
70468;BME280;57934;51.532;7.684;2023-03-14T02:59:04;97854.03;;;8.34;100.00
70468;BME280;57934;51.532;7.684;2023-03-14T03:01:55;97848.09;;;8.39;100.00
70468;BME280;57934;51.532;7.684;2023-03-14T03:04:22;97850.13;;;8.36;99.90
70468;BME280;57934;51.532;7.684;2023-03-14T03:06:48;97844.31;;;8.34;100.00
70468;BME280;57934;51.532;7.684;2023-03-14T03:09:15;97851.41;;;8.34;100.00
70468;BME280;57934;51.532;7.684;2023-03-14T03:11:41;97849.56;;;8.34;100.00
70468;BME280;57934;51.532;7.684;2023-03-14T03:14:10;97844.31;;;8.34;100.00
70468;BME280;57934;51.532;7.684;2023-03-14T03:16:36;97846.63;;;8.31;100.00
70468;BME280;57934;51.532;7.684;2023-03-14T03:19:02;97839.78;;;8.30;100.00
70468;BME280;57934;51.532;7.684;2023-03-14T03:21:28;97822.22;;;8.30;100.00
70468;BME280;57934;51.532;7.684;2023-03-14T03:23:55;97830.66;;;8.32;100.00
70468;BME280;57934;51.532;7.684;2023-03-14T03:26:21;97828.34;;;8.36;99.73
70468;BME280;57934;51.532;7.684;2023-03-14T03:32:35;97818.34;;;8.50;98.01
70468;BME280;57934;51.532;7.684;2023-03-14T03:35:03;97810.22;;;8.51;97.92
70468;BME280;57934;51.532;7.684;2023-03-14T03:37:33;97809.47;;;8.56;96.87
70468;BME280;57934;51.532;7.684;2023-03-14T03:40:00;97823.22;;;8.63;96.69
70468;BME280;57934;51.532;7.684;2023-03-14T03:42:27;97815.13;;;8.65;96.41
70468;BME280;57934;51.532;7.684;2023-03-14T03:44:53;97815.19;;;8.70;95.76
70468;BME280;57934;51.532;7.684;2023-03-14T03:47:20;97818.38;;;8.72;95.61
70468;BME280;57934;51.532;7.684;2023-03-14T03:49:46;97820.53;;;8.75;95.13
70468;BME280;57934;51.532;7.684;2023-03-14T03:52:12;97808.91;;;8.71;95.29
70468;BME280;57934;51.532;7.684;2023-03-14T03:54:38;97808.91;;;8.71;94.97
70468;BME280;57934;51.532;7.684;2023-03-14T03:57:05;97813.34;;;8.70;94.81
70468;BME280;57934;51.532;7.684;2023-03-14T03:59:33;97812.06;;;8.73;94.60
70468;BME280;57934;51.532;7.684;2023-03-14T04:02:00;97814.16;;;8.71;94.63
70468;BME280;57934;51.532;7.684;2023-03-14T04:04:26;97812.34;;;8.71;94.52
70468;BME280;57934;51.532;7.684;2023-03-14T04:06:53;97813.13;;;8.72;94.59
70468;BME280;57934;51.532;7.684;2023-03-14T04:09:19;97815.75;;;8.72;94.60
70468;BME280;57934;51.532;7.684;2023-03-14T04:11:50;97817.41;;;8.78;94.54
70468;BME280;57934;51.532;7.684;2023-03-14T04:14:19;97815.25;;;8.75;94.31
70468;BME280;57934;51.532;7.684;2023-03-14T04:16:45;97820.22;;;8.71;95.06
70468;BME280;57934;51.532;7.684;2023-03-14T04:19:20;97816.56;;;8.55;96.32
70468;BME280;57934;51.532;7.684;2023-03-14T04:21:47;97807.75;;;8.45;97.61
70468;BME280;57934;51.532;7.684;2023-03-14T04:24:14;97810.75;;;8.36;98.58
70468;BME280;57934;51.532;7.684;2023-03-14T04:26:42;97804.09;;;8.29;99.41
70468;BME280;57934;51.532;7.684;2023-03-14T04:29:10;97783.31;;;8.27;99.63
70468;BME280;57934;51.532;7.684;2023-03-14T04:31:36;97803.34;;;8.17;99.47
70468;BME280;57934;51.532;7.684;2023-03-14T04:34:02;97789.13;;;8.12;100.00
70468;BME280;57934;51.532;7.684;2023-03-14T04:36:36;97795.25;;;8.01;100.00
70468;BME280;57934;51.532;7.684;2023-03-14T04:39:05;97806.13;;;7.93;100.00
70468;BME280;57934;51.532;7.684;2023-03-14T04:41:34;97802.16;;;7.91;100.00
70468;BME280;57934;51.532;7.684;2023-03-14T04:44:00;97802.00;;;7.80;100.00
70468;BME280;57934;51.532;7.684;2023-03-14T04:46:26;97789.34;;;7.77;100.00
70468;BME280;57934;51.532;7.684;2023-03-14T04:48:52;97784.03;;;7.72;100.00
70468;BME280;57934;51.532;7.684;2023-03-14T04:51:19;97788.38;;;7.67;100.00
70468;BME280;57934;51.532;7.684;2023-03-14T04:53:45;97790.53;;;7.70;100.00
70468;BME280;57934;51.532;7.684;2023-03-14T04:56:13;97781.31;;;7.67;100.00
70468;BME280;57934;51.532;7.684;2023-03-14T04:58:43;97788.38;;;7.67;100.00
70468;BME280;57934;51.532;7.684;2023-03-14T05:01:10;97795.00;;;7.69;100.00
70468;BME280;57934;51.532;7.684;2023-03-14T05:03:39;97790.53;;;7.70;100.00
70468;BME280;57934;51.532;7.684;2023-03-14T05:06:17;97783.31;;;7.77;100.00
70468;BME280;57934;51.532;7.684;2023-03-14T05:09:01;97783.63;;;7.80;100.00
70468;BME280;57934;51.532;7.684;2023-03-14T05:11:46;97779.50;;;7.84;100.00
70468;BME280;57934;51.532;7.684;2023-03-14T05:14:41;97778.22;;;7.87;100.00
70468;BME280;57934;51.532;7.684;2023-03-14T05:17:20;97761.91;;;7.85;100.00
70468;BME280;57934;51.532;7.684;2023-03-14T05:20:07;97759.31;;;7.85;100.00
70468;BME280;57934;51.532;7.684;2023-03-14T05:22:50;97745.13;;;7.86;100.00
70468;BME280;57934;51.532;7.684;2023-03-14T05:25:32;97755.94;;;7.89;100.00
70468;BME280;57934;51.532;7.684;2023-03-14T05:28:08;97764.72;;;7.95;100.00
70468;BME280;57934;51.532;7.684;2023-03-14T05:30:53;97773.69;;;7.99;100.00
70468;BME280;57934;51.532;7.684;2023-03-14T05:33:42;97776.78;;;7.96;100.00
70468;BME280;57934;51.532;7.684;2023-03-14T05:36:28;97778.94;;;7.99;100.00
70468;BME280;57934;51.532;7.684;2023-03-14T05:39:04;97763.75;;;8.01;100.00
70468;BME280;57934;51.532;7.684;2023-03-14T05:42:00;97752.31;;;7.91;100.00
70468;BME280;57934;51.532;7.684;2023-03-14T05:44:45;97770.75;;;7.96;100.00
70468;BME280;57934;51.532;7.684;2023-03-14T05:47:30;97762.09;;;7.95;100.00
70468;BME280;57934;51.532;7.684;2023-03-14T05:50:11;97767.81;;;7.92;100.00
70468;BME280;57934;51.532;7.684;2023-03-14T05:53:08;97744.97;;;7.93;100.00
70468;BME280;57934;51.532;7.684;2023-03-14T05:55:53;97748.09;;;7.89;100.00
70468;BME280;57934;51.532;7.684;2023-03-14T05:58:37;97749.44;;;7.92;100.00
70468;BME280;57934;51.532;7.684;2023-03-14T06:01:22;97757.47;;;7.85;100.00
70468;BME280;57934;51.532;7.684;2023-03-14T06:04:03;97749.84;;;7.84;100.00
70468;BME280;57934;51.532;7.684;2023-03-14T06:06:29;97745.31;;;7.79;100.00
70468;BME280;57934;51.532;7.684;2023-03-14T06:08:58;97739.75;;;7.76;100.00
70468;BME280;57934;51.532;7.684;2023-03-14T06:11:25;97738.56;;;7.83;100.00
70468;BME280;57934;51.532;7.684;2023-03-14T06:13:51;97733.84;;;7.85;100.00
70468;BME280;57934;51.532;7.684;2023-03-14T06:16:17;97743.56;;;7.85;100.00
70468;BME280;57934;51.532;7.684;2023-03-14T06:18:43;97736.78;;;7.89;100.00
70468;BME280;57934;51.532;7.684;2023-03-14T06:21:12;97734.50;;;7.93;100.00
70468;BME280;57934;51.532;7.684;2023-03-14T06:23:39;97720.75;;;8.02;100.00
70468;BME280;57934;51.532;7.684;2023-03-14T06:26:05;97725.75;;;8.04;100.00
70468;BME280;57934;51.532;7.684;2023-03-14T06:28:32;97717.06;;;8.03;100.00
70468;BME280;57934;51.532;7.684;2023-03-14T06:31:02;97714.44;;;8.03;100.00
70468;BME280;57934;51.532;7.684;2023-03-14T06:33:36;97713.19;;;8.06;100.00
70468;BME280;57934;51.532;7.684;2023-03-14T06:36:04;97720.56;;;8.09;100.00
70468;BME280;57934;51.532;7.684;2023-03-14T06:38:31;97719.06;;;8.13;100.00
70468;BME280;57934;51.532;7.684;2023-03-14T06:41:05;97711.19;;;8.13;100.00
70468;BME280;57934;51.532;7.684;2023-03-14T06:43:37;97704.66;;;8.16;100.00
70468;BME280;57934;51.532;7.684;2023-03-14T06:46:05;97710.75;;;8.21;100.00
70468;BME280;57934;51.532;7.684;2023-03-14T06:48:33;97714.25;;;8.27;100.00
70468;BME280;57934;51.532;7.684;2023-03-14T06:51:00;97693.56;;;8.30;100.00
70468;BME280;57934;51.532;7.684;2023-03-14T06:53:26;97720.59;;;8.31;100.00
70468;BME280;57934;51.532;7.684;2023-03-14T06:55:52;97714.34;;;8.32;100.00
70468;BME280;57934;51.532;7.684;2023-03-14T06:58:19;97720.88;;;8.29;100.00
70468;BME280;57934;51.532;7.684;2023-03-14T07:00:45;97716.88;;;8.27;100.00
70468;BME280;57934;51.532;7.684;2023-03-14T07:03:16;97735.03;;;8.28;100.00
70468;BME280;57934;51.532;7.684;2023-03-14T07:05:47;97724.09;;;8.36;100.00
70468;BME280;57934;51.532;7.684;2023-03-14T07:08:13;97725.81;;;8.43;100.00
70468;BME280;57934;51.532;7.684;2023-03-14T07:10:39;97719.03;;;8.47;100.00
70468;BME280;57934;51.532;7.684;2023-03-14T07:13:06;97726.84;;;8.86;100.00
70468;BME280;57934;51.532;7.684;2023-03-14T07:15:36;97728.19;;;8.88;100.00
70468;BME280;57934;51.532;7.684;2023-03-14T07:18:07;97728.50;;;8.70;100.00
70468;BME280;57934;51.532;7.684;2023-03-14T07:20:33;97723.06;;;8.54;100.00
70468;BME280;57934;51.532;7.684;2023-03-14T07:22:59;97735.31;;;8.49;100.00
70468;BME280;57934;51.532;7.684;2023-03-14T07:25:43;97736.00;;;8.61;100.00
70468;BME280;57934;51.532;7.684;2023-03-14T07:28:09;97739.47;;;8.67;100.00
70468;BME280;57934;51.532;7.684;2023-03-14T07:30:37;97737.66;;;8.67;100.00
70468;BME280;57934;51.532;7.684;2023-03-14T07:33:10;97739.13;;;8.80;100.00
70468;BME280;57934;51.532;7.684;2023-03-14T07:35:37;97736.19;;;8.76;100.00
70468;BME280;57934;51.532;7.684;2023-03-14T07:38:03;97732.59;;;8.82;100.00
70468;BME280;57934;51.532;7.684;2023-03-14T07:40:35;97744.88;;;8.77;100.00
70468;BME280;57934;51.532;7.684;2023-03-14T07:43:02;97739.88;;;8.75;100.00
70468;BME280;57934;51.532;7.684;2023-03-14T07:45:40;97754.44;;;8.66;100.00
70468;BME280;57934;51.532;7.684;2023-03-14T07:48:06;97750.81;;;8.67;100.00
70468;BME280;57934;51.532;7.684;2023-03-14T07:50:32;97747.97;;;8.74;100.00
70468;BME280;57934;51.532;7.684;2023-03-14T07:52:58;97759.59;;;8.78;100.00
70468;BME280;57934;51.532;7.684;2023-03-14T07:55:24;97749.91;;;8.78;100.00
70468;BME280;57934;51.532;7.684;2023-03-14T07:57:50;97752.66;;;8.89;100.00
70468;BME280;57934;51.532;7.684;2023-03-14T08:00:17;97749.53;;;8.92;100.00
70468;BME280;57934;51.532;7.684;2023-03-14T08:02:45;97753.28;;;9.01;100.00
70468;BME280;57934;51.532;7.684;2023-03-14T08:05:12;97745.00;;;9.09;100.00
70468;BME280;57934;51.532;7.684;2023-03-14T08:07:38;97742.41;;;9.14;100.00
70468;BME280;57934;51.532;7.684;2023-03-14T08:10:04;97756.13;;;9.16;100.00
70468;BME280;57934;51.532;7.684;2023-03-14T08:12:31;97756.84;;;9.12;100.00
70468;BME280;57934;51.532;7.684;2023-03-14T08:14:57;97755.00;;;9.12;100.00
70468;BME280;57934;51.532;7.684;2023-03-14T08:17:22;97754.50;;;9.15;100.00
70468;BME280;57934;51.532;7.684;2023-03-14T08:19:49;97762.38;;;9.15;100.00
70468;BME280;57934;51.532;7.684;2023-03-14T08:22:15;97765.63;;;9.22;100.00
70468;BME280;57934;51.532;7.684;2023-03-14T08:24:41;97769.03;;;9.23;100.00
70468;BME280;57934;51.532;7.684;2023-03-14T08:27:07;97765.88;;;9.21;100.00
70468;BME280;57934;51.532;7.684;2023-03-14T08:29:33;97759.03;;;9.47;100.00
70468;BME280;57934;51.532;7.684;2023-03-14T08:31:59;97765.34;;;9.46;100.00
70468;BME280;57934;51.532;7.684;2023-03-14T08:34:25;97764.47;;;9.62;100.00
70468;BME280;57934;51.532;7.684;2023-03-14T08:36:51;97766.88;;;9.69;100.00
70468;BME280;57934;51.532;7.684;2023-03-14T08:39:17;97774.91;;;9.84;100.00
70468;BME280;57934;51.532;7.684;2023-03-14T08:41:43;97764.75;;;9.98;99.56
70468;BME280;57934;51.532;7.684;2023-03-14T08:44:10;97769.34;;;10.18;99.04
70468;BME280;57934;51.532;7.684;2023-03-14T08:46:39;97770.28;;;10.34;98.64
70468;BME280;57934;51.532;7.684;2023-03-14T08:49:05;97773.25;;;10.10;98.47
70468;BME280;57934;51.532;7.684;2023-03-14T08:51:31;97775.44;;;9.86;99.62
70468;BME280;57934;51.532;7.684;2023-03-14T08:53:57;97772.34;;;9.62;100.00
70468;BME280;57934;51.532;7.684;2023-03-14T08:56:24;97777.13;;;9.65;100.00
70468;BME280;57934;51.532;7.684;2023-03-14T08:58:50;97781.84;;;9.68;100.00
70468;BME280;57934;51.532;7.684;2023-03-14T09:01:16;97783.84;;;9.83;100.00
70468;BME280;57934;51.532;7.684;2023-03-14T09:03:46;97782.91;;;9.67;100.00
70468;BME280;57934;51.532;7.684;2023-03-14T09:06:48;97781.16;;;9.78;100.00
70468;BME280;57934;51.532;7.684;2023-03-14T09:09:26;97778.41;;;9.95;100.00
70468;BME280;57934;51.532;7.684;2023-03-14T09:12:02;97784.16;;;10.24;100.00
70468;BME280;57934;51.532;7.684;2023-03-14T09:14:28;97789.25;;;10.31;100.00
70468;BME280;57934;51.532;7.684;2023-03-14T09:16:54;97786.72;;;10.46;100.00
70468;BME280;57934;51.532;7.684;2023-03-14T09:19:21;97787.66;;;10.77;99.46
70468;BME280;57934;51.532;7.684;2023-03-14T09:21:47;97793.34;;;10.54;98.38
70468;BME280;57934;51.532;7.684;2023-03-14T09:24:13;97784.38;;;10.49;99.97
70468;BME280;57934;51.532;7.684;2023-03-14T09:26:39;97788.59;;;10.50;99.92
70468;BME280;57934;51.532;7.684;2023-03-14T09:29:05;97799.91;;;10.46;99.59
70468;BME280;57934;51.532;7.684;2023-03-14T09:31:32;97791.66;;;10.37;100.00
70468;BME280;57934;51.532;7.684;2023-03-14T09:33:58;97794.38;;;10.15;100.00
70468;BME280;57934;51.532;7.684;2023-03-14T09:36:24;97796.13;;;10.04;100.00
70468;BME280;57934;51.532;7.684;2023-03-14T09:38:50;97795.84;;;10.01;100.00
70468;BME280;57934;51.532;7.684;2023-03-14T09:43:49;97809.03;;;10.06;100.00
70468;BME280;57934;51.532;7.684;2023-03-14T09:46:20;97809.44;;;9.93;100.00
70468;BME280;57934;51.532;7.684;2023-03-14T09:48:46;97833.50;;;9.74;100.00
70468;BME280;57934;51.532;7.684;2023-03-14T09:51:14;97848.66;;;9.62;100.00
70468;BME280;57934;51.532;7.684;2023-03-14T09:53:47;97830.50;;;9.39;100.00
70468;BME280;57934;51.532;7.684;2023-03-14T09:56:24;97844.94;;;9.36;100.00
70468;BME280;57934;51.532;7.684;2023-03-14T09:59:03;97844.44;;;9.39;100.00
70468;BME280;57934;51.532;7.684;2023-03-14T10:01:33;97851.34;;;9.45;100.00
70468;BME280;57934;51.532;7.684;2023-03-14T10:04:10;97866.53;;;9.38;100.00
70468;BME280;57934;51.532;7.684;2023-03-14T10:06:39;97886.03;;;9.20;100.00
70468;BME280;57934;51.532;7.684;2023-03-14T10:09:05;97914.69;;;9.00;100.00
70468;BME280;57934;51.532;7.684;2023-03-14T10:11:32;97924.34;;;8.60;100.00
70468;BME280;57934;51.532;7.684;2023-03-14T10:16:33;97934.78;;;8.27;100.00
70468;BME280;57934;51.532;7.684;2023-03-14T10:19:05;97947.69;;;8.28;100.00
70468;BME280;57934;51.532;7.684;2023-03-14T10:21:50;97956.72;;;8.21;100.00
70468;BME280;57934;51.532;7.684;2023-03-14T10:24:34;97962.53;;;8.23;100.00
70468;BME280;57934;51.532;7.684;2023-03-14T10:27:03;97971.13;;;8.18;100.00
70468;BME280;57934;51.532;7.684;2023-03-14T10:29:34;97990.16;;;8.25;100.00
70468;BME280;57934;51.532;7.684;2023-03-14T10:32:05;97997.72;;;8.50;100.00
70468;BME280;57934;51.532;7.684;2023-03-14T10:34:36;98011.53;;;8.46;100.00
70468;BME280;57934;51.532;7.684;2023-03-14T10:39:46;98048.44;;;7.99;100.00
70468;BME280;57934;51.532;7.684;2023-03-14T10:42:19;98056.69;;;7.67;100.00
70468;BME280;57934;51.532;7.684;2023-03-14T10:44:50;98078.84;;;7.48;100.00
70468;BME280;57934;51.532;7.684;2023-03-14T10:47:23;98090.66;;;7.27;100.00
70468;BME280;57934;51.532;7.684;2023-03-14T10:49:50;98092.13;;;7.23;100.00
70468;BME280;57934;51.532;7.684;2023-03-14T10:52:22;98110.59;;;7.28;100.00
70468;BME280;57934;51.532;7.684;2023-03-14T10:54:58;98112.34;;;7.34;100.00
70468;BME280;57934;51.532;7.684;2023-03-14T10:57:25;98114.13;;;7.33;100.00
70468;BME280;57934;51.532;7.684;2023-03-14T10:59:53;98126.69;;;7.31;100.00
70468;BME280;57934;51.532;7.684;2023-03-14T11:02:24;98132.13;;;7.30;100.00
70468;BME280;57934;51.532;7.684;2023-03-14T11:21:13;98257.44;;;6.73;100.00
70468;BME280;57934;51.532;7.684;2023-03-14T11:30:17;98299.03;;;6.44;100.00
70468;BME280;57934;51.532;7.684;2023-03-14T11:32:30;98334.34;;;6.10;100.00
70468;BME280;57934;51.532;7.684;2023-03-14T11:35:03;98361.34;;;6.04;100.00
70468;BME280;57934;51.532;7.684;2023-03-14T11:37:36;98374.56;;;5.77;100.00
70468;BME280;57934;51.532;7.684;2023-03-14T11:42:43;98393.22;;;5.42;96.05
70468;BME280;57934;51.532;7.684;2023-03-14T11:45:17;98403.44;;;5.44;95.34
70468;BME280;57934;51.532;7.684;2023-03-14T11:47:49;98418.50;;;5.62;94.85
70468;BME280;57934;51.532;7.684;2023-03-14T11:50:17;98435.03;;;5.42;90.81
70468;BME280;57934;51.532;7.684;2023-03-14T11:52:51;98439.63;;;5.54;92.28
70468;BME280;57934;51.532;7.684;2023-03-14T11:57:49;98471.13;;;5.72;92.08
70468;BME280;57934;51.532;7.684;2023-03-14T12:00:21;98474.09;;;5.82;92.94
70468;BME280;57934;51.532;7.684;2023-03-14T12:10:48;98499.97;;;5.52;91.96
70468;BME280;57934;51.532;7.684;2023-03-14T12:13:16;98507.97;;;5.57;91.93
70468;BME280;57934;51.532;7.684;2023-03-14T12:15:57;98512.34;;;5.77;90.97
70468;BME280;57934;51.532;7.684;2023-03-14T12:18:29;98524.19;;;5.86;88.85
70468;BME280;57934;51.532;7.684;2023-03-14T12:21:01;98538.09;;;5.86;87.35
70468;BME280;57934;51.532;7.684;2023-03-14T12:23:56;98539.47;;;6.02;88.85
70468;BME280;57934;51.532;7.684;2023-03-14T12:26:23;98548.69;;;6.11;87.19
70468;BME280;57934;51.532;7.684;2023-03-14T12:39:29;98579.97;;;6.38;84.09
70468;BME280;57934;51.532;7.684;2023-03-14T12:45:14;98597.69;;;6.42;83.69
70468;BME280;57934;51.532;7.684;2023-03-14T12:47:50;98611.38;;;6.38;82.97
70468;BME280;57934;51.532;7.684;2023-03-14T12:50:40;98608.38;;;6.34;83.57
70468;BME280;57934;51.532;7.684;2023-03-14T12:56:32;98617.28;;;6.27;84.63
70468;BME280;57934;51.532;7.684;2023-03-14T12:59:37;98631.56;;;6.31;84.04
70468;BME280;57934;51.532;7.684;2023-03-14T13:12:49;98656.50;;;6.91;82.24
70468;BME280;57934;51.532;7.684;2023-03-14T13:15:39;98668.66;;;6.73;82.86
70468;BME280;57934;51.532;7.684;2023-03-14T13:18:12;98681.00;;;6.52;84.42
70468;BME280;57934;51.532;7.684;2023-03-14T13:20:48;98696.03;;;6.05;86.18
70468;BME280;57934;51.532;7.684;2023-03-14T13:23:31;98711.69;;;5.72;90.59
70468;BME280;57934;51.532;7.684;2023-03-14T13:25:59;98712.88;;;5.43;92.83
70468;BME280;57934;51.532;7.684;2023-03-14T13:28:27;98727.03;;;4.94;93.00
70468;BME280;57934;51.532;7.684;2023-03-14T13:30:58;98732.97;;;4.74;94.69
70468;BME280;57934;51.532;7.684;2023-03-14T13:33:25;98743.03;;;4.77;96.56
70468;BME280;57934;51.532;7.684;2023-03-14T13:36:00;98760.78;;;4.54;97.21
70468;BME280;57934;51.532;7.684;2023-03-14T13:38:30;98754.50;;;4.48;98.38
70468;BME280;57934;51.532;7.684;2023-03-14T13:40:58;98765.63;;;4.57;98.70
70468;BME280;57934;51.532;7.684;2023-03-14T13:46:05;98774.56;;;4.76;96.58
70468;BME280;57934;51.532;7.684;2023-03-14T13:48:43;98775.13;;;4.71;95.53
70468;BME280;57934;51.532;7.684;2023-03-14T13:51:12;98791.09;;;4.90;96.50
70468;BME280;57934;51.532;7.684;2023-03-14T13:53:49;98790.84;;;4.78;96.20
70468;BME280;57934;51.532;7.684;2023-03-14T13:56:18;98789.84;;;4.79;96.47
70468;BME280;57934;51.532;7.684;2023-03-14T13:58:44;98811.94;;;4.83;97.16
70468;BME280;57934;51.532;7.684;2023-03-14T14:01:18;98812.19;;;4.88;97.80
70468;BME280;57934;51.532;7.684;2023-03-14T14:03:47;98816.06;;;4.99;98.57
70468;BME280;57934;51.532;7.684;2023-03-14T14:08:59;98833.75;;;5.45;98.55
70468;BME280;57934;51.532;7.684;2023-03-14T14:11:41;98835.81;;;5.69;98.79
70468;BME280;57934;51.532;7.684;2023-03-14T14:14:13;98837.84;;;5.81;97.14
70468;BME280;57934;51.532;7.684;2023-03-14T14:16:44;98841.50;;;5.86;96.38
70468;BME280;57934;51.532;7.684;2023-03-14T14:19:12;98846.56;;;5.94;95.05
70468;BME280;57934;51.532;7.684;2023-03-14T14:21:39;98848.75;;;5.91;91.94
70468;BME280;57934;51.532;7.684;2023-03-14T14:24:05;98862.06;;;6.03;92.46
70468;BME280;57934;51.532;7.684;2023-03-14T14:26:33;98869.56;;;6.26;92.86
70468;BME280;57934;51.532;7.684;2023-03-14T14:29:04;98877.00;;;6.42;91.90
70468;BME280;57934;51.532;7.684;2023-03-14T14:31:31;98889.91;;;6.50;91.49
70468;BME280;57934;51.532;7.684;2023-03-14T14:38:57;98901.28;;;5.96;87.86
70468;BME280;57934;51.532;7.684;2023-03-14T14:41:29;98906.28;;;5.91;87.64
70468;BME280;57934;51.532;7.684;2023-03-14T14:43:56;98910.16;;;5.95;87.77
70468;BME280;57934;51.532;7.684;2023-03-14T14:46:26;98923.03;;;6.03;86.14
70468;BME280;57934;51.532;7.684;2023-03-14T14:49:06;98927.50;;;6.16;85.41
70468;BME280;57934;51.532;7.684;2023-03-14T14:51:41;98931.38;;;6.33;85.28
70468;BME280;57934;51.532;7.684;2023-03-14T14:54:34;98935.34;;;6.16;81.34